Bay Point, New York
Current Conditions -  °F | °C
As of 10:23 AM on Wednesday 26 Nov 2014 (Local Time) from KFOK Reporting Station
Moderate Rain Moderate Rain  
Wind Chill:   Ceiling: 2600
Heat Index:   Visibility: 1.5mi
Dew Point:   Wind: 12mph
Humidity: 86%   Direction: 20°NNE
Pressure: 30.08"   Gusts: NA
Location:  40.9692°N, 72.306°W
Report Text: KFOK 261523Z 02010KT 1 1/2SM RA BR FEW006 BKN026 OVC055 05/03 A3008 RMK AO2 PRESFR P0006 T00500028
Loading
Personal Weather Stations






























Interactive Weather Map New forecast layout! Learn more

10-Day Weather Forecast

Advertisements
Track Severe Weather on mobile